sensor_id;sensor_type;location;lat;lon;timestamp;temperature;humidity
75786;DHT22;64402;44.708;37.644;2023-05-29T00:01:29;20.84;81.91
75786;DHT22;64402;44.708;37.644;2023-05-29T00:03:57;20.84;81.95
75786;DHT22;64402;44.708;37.644;2023-05-29T00:06:24;20.84;82.02
75786;DHT22;64402;44.708;37.644;2023-05-29T00:08:50;20.83;81.79
75786;DHT22;64402;44.708;37.644;2023-05-29T00:11:16;20.85;81.70
75786;DHT22;64402;44.708;37.644;2023-05-29T00:13:42;20.87;81.49
75786;DHT22;64402;44.708;37.644;2023-05-29T00:16:08;20.87;81.64
75786;DHT22;64402;44.708;37.644;2023-05-29T00:18:35;20.90;81.36
75786;DHT22;64402;44.708;37.644;2023-05-29T00:21:02;20.92;81.32
75786;DHT22;64402;44.708;37.644;2023-05-29T00:23:28;20.92;81.25
75786;DHT22;64402;44.708;37.644;2023-05-29T00:25:54;20.93;81.03
75786;DHT22;64402;44.708;37.644;2023-05-29T00:28:20;20.96;80.89
75786;DHT22;64402;44.708;37.644;2023-05-29T00:30:46;20.96;81.03
75786;DHT22;64402;44.708;37.644;2023-05-29T00:33:12;20.93;81.16
75786;DHT22;64402;44.708;37.644;2023-05-29T00:35:44;20.95;81.15
75786;DHT22;64402;44.708;37.644;2023-05-29T00:38:10;20.92;81.52
75786;DHT22;64402;44.708;37.644;2023-05-29T00:40:37;20.90;81.61
75786;DHT22;64402;44.708;37.644;2023-05-29T00:43:03;20.91;81.28
75786;DHT22;64402;44.708;37.644;2023-05-29T00:45:29;20.92;81.37
75786;DHT22;64402;44.708;37.644;2023-05-29T00:47:57;20.88;81.66
75786;DHT22;64402;44.708;37.644;2023-05-29T00:50:23;20.93;81.45
75786;DHT22;64402;44.708;37.644;2023-05-29T00:52:50;20.91;81.55
75786;DHT22;64402;44.708;37.644;2023-05-29T00:55:16;20.91;81.33
75786;DHT22;64402;44.708;37.644;2023-05-29T00:57:43;20.94;81.43
75786;DHT22;64402;44.708;37.644;2023-05-29T01:00:11;20.93;81.45
75786;DHT22;64402;44.708;37.644;2023-05-29T01:02:40;20.93;81.34
75786;DHT22;64402;44.708;37.644;2023-05-29T01:05:13;20.94;81.28
75786;DHT22;64402;44.708;37.644;2023-05-29T01:07:43;20.96;81.02
75786;DHT22;64402;44.708;37.644;2023-05-29T01:10:10;20.99;81.04
75786;DHT22;64402;44.708;37.644;2023-05-29T01:12:43;21.02;80.98
75786;DHT22;64402;44.708;37.644;2023-05-29T01:20:42;20.96;81.33
75786;DHT22;64402;44.708;37.644;2023-05-29T01:25:58;20.94;81.84
75786;DHT22;64402;44.708;37.644;2023-05-29T01:28:42;20.92;82.04
75786;DHT22;64402;44.708;37.644;2023-05-29T01:31:11;20.88;81.91
75786;DHT22;64402;44.708;37.644;2023-05-29T01:33:39;20.84;82.10
75786;DHT22;64402;44.708;37.644;2023-05-29T01:36:08;20.84;82.09
75786;DHT22;64402;44.708;37.644;2023-05-29T01:38:34;20.80;82.25
75786;DHT22;64402;44.708;37.644;2023-05-29T01:41:01;20.79;82.39
75786;DHT22;64402;44.708;37.644;2023-05-29T01:43:29;20.76;82.59
75786;DHT22;64402;44.708;37.644;2023-05-29T01:46:03;20.75;82.46
75786;DHT22;64402;44.708;37.644;2023-05-29T01:48:29;20.73;82.55
75786;DHT22;64402;44.708;37.644;2023-05-29T01:50:57;20.69;82.91
75786;DHT22;64402;44.708;37.644;2023-05-29T01:53:24;20.70;82.81
75786;DHT22;64402;44.708;37.644;2023-05-29T01:55:51;20.64;82.81
75786;DHT22;64402;44.708;37.644;2023-05-29T01:58:18;20.64;82.81
75786;DHT22;64402;44.708;37.644;2023-05-29T02:00:45;20.63;82.82
75786;DHT22;64402;44.708;37.644;2023-05-29T02:03:11;20.62;82.92
75786;DHT22;64402;44.708;37.644;2023-05-29T02:05:39;20.58;83.04
75786;DHT22;64402;44.708;37.644;2023-05-29T02:08:08;20.60;82.96
75786;DHT22;64402;44.708;37.644;2023-05-29T02:10:34;20.60;82.83
75786;DHT22;64402;44.708;37.644;2023-05-29T02:13:05;20.63;82.78
75786;DHT22;64402;44.708;37.644;2023-05-29T02:15:31;20.65;82.58
75786;DHT22;64402;44.708;37.644;2023-05-29T02:17:57;20.68;82.50
75786;DHT22;64402;44.708;37.644;2023-05-29T02:20:24;20.71;82.37
75786;DHT22;64402;44.708;37.644;2023-05-29T02:22:50;20.72;82.39
75786;DHT22;64402;44.708;37.644;2023-05-29T02:25:16;20.75;82.40
75786;DHT22;64402;44.708;37.644;2023-05-29T02:27:42;20.79;82.22
75786;DHT22;64402;44.708;37.644;2023-05-29T02:30:08;20.79;82.39
75786;DHT22;64402;44.708;37.644;2023-05-29T02:32:35;20.80;82.23
75786;DHT22;64402;44.708;37.644;2023-05-29T02:35:01;20.83;82.16
75786;DHT22;64402;44.708;37.644;2023-05-29T02:37:27;20.87;81.78
75786;DHT22;64402;44.708;37.644;2023-05-29T02:39:53;20.88;81.88
75786;DHT22;64402;44.708;37.644;2023-05-29T02:42:19;20.91;81.78
75786;DHT22;64402;44.708;37.644;2023-05-29T02:44:46;20.95;81.49
75786;DHT22;64402;44.708;37.644;2023-05-29T02:47:12;20.94;81.59
75786;DHT22;64402;44.708;37.644;2023-05-29T02:49:38;21.02;81.36
75786;DHT22;64402;44.708;37.644;2023-05-29T02:52:05;21.10;81.04
75786;DHT22;64402;44.708;37.644;2023-05-29T02:54:31;21.11;81.04
75786;DHT22;64402;44.708;37.644;2023-05-29T02:56:57;21.18;80.86
75786;DHT22;64402;44.708;37.644;2023-05-29T02:59:23;21.24;80.44
75786;DHT22;64402;44.708;37.644;2023-05-29T03:01:50;21.36;80.06
75786;DHT22;64402;44.708;37.644;2023-05-29T03:04:17;21.46;79.67
75786;DHT22;64402;44.708;37.644;2023-05-29T03:06:44;21.60;79.39
75786;DHT22;64402;44.708;37.644;2023-05-29T03:09:11;21.67;79.15
75786;DHT22;64402;44.708;37.644;2023-05-29T03:11:38;21.78;77.85
75786;DHT22;64402;44.708;37.644;2023-05-29T03:14:06;21.88;76.96
75786;DHT22;64402;44.708;37.644;2023-05-29T03:16:32;21.92;75.51
75786;DHT22;64402;44.708;37.644;2023-05-29T03:18:58;21.99;75.13
75786;DHT22;64402;44.708;37.644;2023-05-29T03:21:25;22.12;74.67
75786;DHT22;64402;44.708;37.644;2023-05-29T03:23:51;22.24;74.31
75786;DHT22;64402;44.708;37.644;2023-05-29T03:26:19;22.26;73.44
75786;DHT22;64402;44.708;37.644;2023-05-29T03:28:45;22.29;73.48
75786;DHT22;64402;44.708;37.644;2023-05-29T03:31:11;22.26;73.85
75786;DHT22;64402;44.708;37.644;2023-05-29T03:33:37;22.25;73.75
75786;DHT22;64402;44.708;37.644;2023-05-29T03:36:03;22.16;72.82
75786;DHT22;64402;44.708;37.644;2023-05-29T03:38:29;22.10;73.61
75786;DHT22;64402;44.708;37.644;2023-05-29T03:40:55;22.05;73.45
75786;DHT22;64402;44.708;37.644;2023-05-29T03:43:21;21.98;73.83
75786;DHT22;64402;44.708;37.644;2023-05-29T03:45:47;22.01;73.84
75786;DHT22;64402;44.708;37.644;2023-05-29T03:48:14;22.01;73.78
75786;DHT22;64402;44.708;37.644;2023-05-29T03:50:41;22.02;73.70
75786;DHT22;64402;44.708;37.644;2023-05-29T03:53:07;21.99;73.59
75786;DHT22;64402;44.708;37.644;2023-05-29T03:55:33;21.97;73.68
75786;DHT22;64402;44.708;37.644;2023-05-29T03:57:59;21.92;73.73
75786;DHT22;64402;44.708;37.644;2023-05-29T04:00:25;21.87;73.39
75786;DHT22;64402;44.708;37.644;2023-05-29T04:02:51;21.82;73.46
75786;DHT22;64402;44.708;37.644;2023-05-29T04:05:18;21.81;73.43
75786;DHT22;64402;44.708;37.644;2023-05-29T04:07:44;21.82;73.07
75786;DHT22;64402;44.708;37.644;2023-05-29T04:10:10;21.85;73.03
75786;DHT22;64402;44.708;37.644;2023-05-29T04:12:37;21.85;73.12
75786;DHT22;64402;44.708;37.644;2023-05-29T04:15:04;21.93;72.69
75786;DHT22;64402;44.708;37.644;2023-05-29T04:17:31;21.99;73.08
75786;DHT22;64402;44.708;37.644;2023-05-29T04:19:57;22.07;73.24
75786;DHT22;64402;44.708;37.644;2023-05-29T04:22:24;22.13;72.83
75786;DHT22;64402;44.708;37.644;2023-05-29T04:24:50;22.16;72.83
75786;DHT22;64402;44.708;37.644;2023-05-29T04:27:20;22.24;73.11
75786;DHT22;64402;44.708;37.644;2023-05-29T04:29:46;22.25;71.35
75786;DHT22;64402;44.708;37.644;2023-05-29T04:32:12;22.32;71.89
75786;DHT22;64402;44.708;37.644;2023-05-29T04:34:39;22.39;70.90
75786;DHT22;64402;44.708;37.644;2023-05-29T04:37:05;22.42;71.42
75786;DHT22;64402;44.708;37.644;2023-05-29T04:39:32;22.46;71.08
75786;DHT22;64402;44.708;37.644;2023-05-29T04:41:59;22.50;70.77
75786;DHT22;64402;44.708;37.644;2023-05-29T04:44:26;22.50;71.39
75786;DHT22;64402;44.708;37.644;2023-05-29T04:46:53;22.56;71.61
75786;DHT22;64402;44.708;37.644;2023-05-29T04:49:19;22.60;71.52
75786;DHT22;64402;44.708;37.644;2023-05-29T04:51:46;22.60;72.01
75786;DHT22;64402;44.708;37.644;2023-05-29T04:54:12;22.63;72.07
75786;DHT22;64402;44.708;37.644;2023-05-29T04:56:39;22.69;71.85
75786;DHT22;64402;44.708;37.644;2023-05-29T04:59:08;22.78;71.80
75786;DHT22;64402;44.708;37.644;2023-05-29T05:01:35;22.85;71.79
75786;DHT22;64402;44.708;37.644;2023-05-29T05:04:01;22.88;71.85
75786;DHT22;64402;44.708;37.644;2023-05-29T05:06:28;22.90;71.50
75786;DHT22;64402;44.708;37.644;2023-05-29T05:08:54;22.87;71.58
75786;DHT22;64402;44.708;37.644;2023-05-29T05:11:22;22.92;71.47
75786;DHT22;64402;44.708;37.644;2023-05-29T05:13:49;22.93;71.60
75786;DHT22;64402;44.708;37.644;2023-05-29T05:16:15;22.95;71.44
75786;DHT22;64402;44.708;37.644;2023-05-29T05:18:44;23.00;71.06
75786;DHT22;64402;44.708;37.644;2023-05-29T05:21:11;23.00;70.71
75786;DHT22;64402;44.708;37.644;2023-05-29T05:23:37;23.07;70.32
75786;DHT22;64402;44.708;37.644;2023-05-29T05:26:03;23.18;70.39
75786;DHT22;64402;44.708;37.644;2023-05-29T05:28:30;23.30;70.40
75786;DHT22;64402;44.708;37.644;2023-05-29T05:30:56;23.37;71.18
75786;DHT22;64402;44.708;37.644;2023-05-29T05:33:23;23.24;70.18
75786;DHT22;64402;44.708;37.644;2023-05-29T05:35:49;23.13;71.16
75786;DHT22;64402;44.708;37.644;2023-05-29T05:38:16;22.85;73.73
75786;DHT22;64402;44.708;37.644;2023-05-29T05:40:42;22.57;75.79
75786;DHT22;64402;44.708;37.644;2023-05-29T05:43:10;22.23;77.48
75786;DHT22;64402;44.708;37.644;2023-05-29T05:45:37;22.01;78.98
75786;DHT22;64402;44.708;37.644;2023-05-29T05:48:08;21.87;79.84
75786;DHT22;64402;44.708;37.644;2023-05-29T05:50:35;21.85;79.94
75786;DHT22;64402;44.708;37.644;2023-05-29T05:53:01;21.80;80.52
75786;DHT22;64402;44.708;37.644;2023-05-29T05:55:27;21.63;81.61
75786;DHT22;64402;44.708;37.644;2023-05-29T05:57:54;21.63;82.10
75786;DHT22;64402;44.708;37.644;2023-05-29T06:00:22;21.64;82.13
75786;DHT22;64402;44.708;37.644;2023-05-29T06:02:49;21.64;82.81
75786;DHT22;64402;44.708;37.644;2023-05-29T06:05:15;21.68;83.39
75786;DHT22;64402;44.708;37.644;2023-05-29T06:07:42;21.63;83.71
75786;DHT22;64402;44.708;37.644;2023-05-29T06:10:09;21.63;84.08
75786;DHT22;64402;44.708;37.644;2023-05-29T06:12:35;21.55;84.53
75786;DHT22;64402;44.708;37.644;2023-05-29T06:15:02;21.66;84.32
75786;DHT22;64402;44.708;37.644;2023-05-29T06:17:30;21.66;84.56
75786;DHT22;64402;44.708;37.644;2023-05-29T06:19:56;21.45;85.59
75786;DHT22;64402;44.708;37.644;2023-05-29T06:22:23;21.48;85.73
75786;DHT22;64402;44.708;37.644;2023-05-29T06:24:49;21.46;85.61
75786;DHT22;64402;44.708;37.644;2023-05-29T06:27:16;21.58;85.45
75786;DHT22;64402;44.708;37.644;2023-05-29T06:29:42;21.62;85.68
75786;DHT22;64402;44.708;37.644;2023-05-29T06:32:08;21.63;85.52
75786;DHT22;64402;44.708;37.644;2023-05-29T06:34:35;21.73;84.92
75786;DHT22;64402;44.708;37.644;2023-05-29T06:37:02;21.76;84.78
75786;DHT22;64402;44.708;37.644;2023-05-29T06:39:28;21.64;85.02
75786;DHT22;64402;44.708;37.644;2023-05-29T06:41:55;21.65;85.35
75786;DHT22;64402;44.708;37.644;2023-05-29T06:44:21;21.73;84.52
75786;DHT22;64402;44.708;37.644;2023-05-29T06:46:48;21.79;85.31
75786;DHT22;64402;44.708;37.644;2023-05-29T06:49:14;21.95;83.07
75786;DHT22;64402;44.708;37.644;2023-05-29T06:51:41;22.01;83.43
75786;DHT22;64402;44.708;37.644;2023-05-29T06:54:07;21.89;83.58
75786;DHT22;64402;44.708;37.644;2023-05-29T06:56:33;21.87;84.63
75786;DHT22;64402;44.708;37.644;2023-05-29T06:59:00;21.78;84.84
75786;DHT22;64402;44.708;37.644;2023-05-29T07:01:57;21.74;84.29
75786;DHT22;64402;44.708;37.644;2023-05-29T07:04:24;21.65;83.91
75786;DHT22;64402;44.708;37.644;2023-05-29T07:06:50;21.51;84.98
75786;DHT22;64402;44.708;37.644;2023-05-29T07:09:17;21.49;84.90
75786;DHT22;64402;44.708;37.644;2023-05-29T07:11:43;21.48;84.71
75786;DHT22;64402;44.708;37.644;2023-05-29T07:14:10;21.48;85.11
75786;DHT22;64402;44.708;37.644;2023-05-29T07:16:36;21.43;84.50
75786;DHT22;64402;44.708;37.644;2023-05-29T07:19:03;21.35;84.45
75786;DHT22;64402;44.708;37.644;2023-05-29T07:21:29;21.30;85.36
75786;DHT22;64402;44.708;37.644;2023-05-29T07:23:58;21.23;85.55
75786;DHT22;64402;44.708;37.644;2023-05-29T07:26:25;21.23;85.87
75786;DHT22;64402;44.708;37.644;2023-05-29T07:28:51;21.20;85.69
75786;DHT22;64402;44.708;37.644;2023-05-29T07:31:18;21.21;85.64
75786;DHT22;64402;44.708;37.644;2023-05-29T07:33:44;21.21;85.52
75786;DHT22;64402;44.708;37.644;2023-05-29T07:36:11;21.27;85.44
75786;DHT22;64402;44.708;37.644;2023-05-29T07:38:38;21.34;85.52
75786;DHT22;64402;44.708;37.644;2023-05-29T07:41:05;21.34;83.64
75786;DHT22;64402;44.708;37.644;2023-05-29T07:43:31;21.35;83.81
75786;DHT22;64402;44.708;37.644;2023-05-29T07:45:58;21.43;84.81
75786;DHT22;64402;44.708;37.644;2023-05-29T07:48:24;21.59;84.58
75786;DHT22;64402;44.708;37.644;2023-05-29T07:50:51;21.72;84.79
75786;DHT22;64402;44.708;37.644;2023-05-29T07:53:18;21.73;84.61
75786;DHT22;64402;44.708;37.644;2023-05-29T07:55:44;21.80;84.19
75786;DHT22;64402;44.708;37.644;2023-05-29T07:58:11;21.79;84.11
75786;DHT22;64402;44.708;37.644;2023-05-29T08:00:37;21.84;83.32
75786;DHT22;64402;44.708;37.644;2023-05-29T08:03:04;22.07;83.33
75786;DHT22;64402;44.708;37.644;2023-05-29T08:05:31;22.41;82.26
75786;DHT22;64402;44.708;37.644;2023-05-29T08:08:00;22.82;80.26
75786;DHT22;64402;44.708;37.644;2023-05-29T08:10:26;22.80;78.82
75786;DHT22;64402;44.708;37.644;2023-05-29T08:12:53;22.52;80.44
75786;DHT22;64402;44.708;37.644;2023-05-29T08:15:19;22.25;81.65
75786;DHT22;64402;44.708;37.644;2023-05-29T08:17:46;22.29;81.49
75786;DHT22;64402;44.708;37.644;2023-05-29T08:20:12;22.26;81.56
75786;DHT22;64402;44.708;37.644;2023-05-29T08:22:38;22.12;81.93
75786;DHT22;64402;44.708;37.644;2023-05-29T08:25:05;22.13;81.43
75786;DHT22;64402;44.708;37.644;2023-05-29T08:29:11;22.27;80.62
75786;DHT22;64402;44.708;37.644;2023-05-29T08:31:40;22.28;80.72
75786;DHT22;64402;44.708;37.644;2023-05-29T08:34:06;22.36;79.90
75786;DHT22;64402;44.708;37.644;2023-05-29T08:36:33;22.61;78.80
75786;DHT22;64402;44.708;37.644;2023-05-29T08:39:00;22.73;77.69
75786;DHT22;64402;44.708;37.644;2023-05-29T08:41:44;22.80;78.27
75786;DHT22;64402;44.708;37.644;2023-05-29T08:44:14;22.93;76.67
75786;DHT22;64402;44.708;37.644;2023-05-29T08:46:43;23.13;77.02
75786;DHT22;64402;44.708;37.644;2023-05-29T08:49:14;23.24;76.57
75786;DHT22;64402;44.708;37.644;2023-05-29T08:51:47;22.94;76.95
75786;DHT22;64402;44.708;37.644;2023-05-29T08:54:16;22.58;77.92
75786;DHT22;64402;44.708;37.644;2023-05-29T08:56:42;22.55;78.14
75786;DHT22;64402;44.708;37.644;2023-05-29T08:59:09;22.62;79.14
75786;DHT22;64402;44.708;37.644;2023-05-29T09:01:38;22.58;79.19
75786;DHT22;64402;44.708;37.644;2023-05-29T09:04:05;22.46;79.69
75786;DHT22;64402;44.708;37.644;2023-05-29T09:06:32;22.55;79.56
75786;DHT22;64402;44.708;37.644;2023-05-29T09:08:58;22.78;77.25
75786;DHT22;64402;44.708;37.644;2023-05-29T09:11:24;22.82;78.27
75786;DHT22;64402;44.708;37.644;2023-05-29T09:13:52;22.90;76.43
75786;DHT22;64402;44.708;37.644;2023-05-29T09:16:19;22.77;77.59
75786;DHT22;64402;44.708;37.644;2023-05-29T09:18:45;22.86;77.33
75786;DHT22;64402;44.708;37.644;2023-05-29T09:21:41;22.93;78.19
75786;DHT22;64402;44.708;37.644;2023-05-29T09:24:08;22.72;78.12
75786;DHT22;64402;44.708;37.644;2023-05-29T09:26:35;22.77;78.87
75786;DHT22;64402;44.708;37.644;2023-05-29T09:29:02;22.78;78.90
75786;DHT22;64402;44.708;37.644;2023-05-29T09:31:29;22.65;78.91
75786;DHT22;64402;44.708;37.644;2023-05-29T09:33:56;22.70;78.83
75786;DHT22;64402;44.708;37.644;2023-05-29T09:36:27;22.93;78.64
75786;DHT22;64402;44.708;37.644;2023-05-29T09:38:54;23.11;77.91
75786;DHT22;64402;44.708;37.644;2023-05-29T09:41:21;23.29;77.18
75786;DHT22;64402;44.708;37.644;2023-05-29T09:43:51;23.40;77.73
75786;DHT22;64402;44.708;37.644;2023-05-29T09:46:20;23.22;76.73
75786;DHT22;64402;44.708;37.644;2023-05-29T09:48:47;23.02;77.90
75786;DHT22;64402;44.708;37.644;2023-05-29T09:51:21;22.92;79.21
75786;DHT22;64402;44.708;37.644;2023-05-29T09:53:50;22.85;78.82
75786;DHT22;64402;44.708;37.644;2023-05-29T09:56:17;22.66;79.95
75786;DHT22;64402;44.708;37.644;2023-05-29T09:58:44;22.46;80.69
75786;DHT22;64402;44.708;37.644;2023-05-29T10:01:13;22.24;81.47
75786;DHT22;64402;44.708;37.644;2023-05-29T10:03:43;22.19;81.61
75786;DHT22;64402;44.708;37.644;2023-05-29T10:06:18;22.14;82.34
75786;DHT22;64402;44.708;37.644;2023-05-29T10:08:47;22.13;81.88
75786;DHT22;64402;44.708;37.644;2023-05-29T10:11:21;22.10;81.81
75786;DHT22;64402;44.708;37.644;2023-05-29T10:13:52;22.18;81.30
75786;DHT22;64402;44.708;37.644;2023-05-29T10:16:23;22.31;80.94
75786;DHT22;64402;44.708;37.644;2023-05-29T10:18:54;22.31;80.49
75786;DHT22;64402;44.708;37.644;2023-05-29T10:21:21;22.25;80.87
75786;DHT22;64402;44.708;37.644;2023-05-29T10:23:50;22.09;81.29
75786;DHT22;64402;44.708;37.644;2023-05-29T10:26:22;21.88;82.19
75786;DHT22;64402;44.708;37.644;2023-05-29T10:28:58;21.65;82.87
75786;DHT22;64402;44.708;37.644;2023-05-29T10:31:33;21.44;82.94
75786;DHT22;64402;44.708;37.644;2023-05-29T10:34:25;21.32;83.81
75786;DHT22;64402;44.708;37.644;2023-05-29T10:37:04;21.42;83.30
75786;DHT22;64402;44.708;37.644;2023-05-29T10:39:31;21.53;82.17
75786;DHT22;64402;44.708;37.644;2023-05-29T10:41:59;21.62;83.48
75786;DHT22;64402;44.708;37.644;2023-05-29T10:49:25;22.14;80.36
75786;DHT22;64402;44.708;37.644;2023-05-29T10:51:52;22.40;80.28
75786;DHT22;64402;44.708;37.644;2023-05-29T10:54:21;22.90;78.50
75786;DHT22;64402;44.708;37.644;2023-05-29T10:56:58;23.21;75.51
75786;DHT22;64402;44.708;37.644;2023-05-29T10:59:27;23.56;75.10
75786;DHT22;64402;44.708;37.644;2023-05-29T11:01:55;23.89;74.05
75786;DHT22;64402;44.708;37.644;2023-05-29T11:06:48;24.84;70.29
75786;DHT22;64402;44.708;37.644;2023-05-29T11:09:35;25.15;68.84
75786;DHT22;64402;44.708;37.644;2023-05-29T11:12:25;25.25;67.57
75786;DHT22;64402;44.708;37.644;2023-05-29T11:14:56;25.33;66.43
75786;DHT22;64402;44.708;37.644;2023-05-29T11:17:30;25.44;67.22
75786;DHT22;64402;44.708;37.644;2023-05-29T11:20:00;25.96;65.78
75786;DHT22;64402;44.708;37.644;2023-05-29T11:22:34;25.96;63.40
75786;DHT22;64402;44.708;37.644;2023-05-29T11:25:07;25.83;66.72
75786;DHT22;64402;44.708;37.644;2023-05-29T11:27:34;25.94;65.11
75786;DHT22;64402;44.708;37.644;2023-05-29T11:30:01;26.03;65.17
75786;DHT22;64402;44.708;37.644;2023-05-29T11:32:31;26.24;64.06
75786;DHT22;64402;44.708;37.644;2023-05-29T11:35:05;26.34;62.90
75786;DHT22;64402;44.708;37.644;2023-05-29T11:37:34;26.62;63.58
75786;DHT22;64402;44.708;37.644;2023-05-29T11:40:04;26.73;62.76
75786;DHT22;64402;44.708;37.644;2023-05-29T11:42:31;26.91;60.96
75786;DHT22;64402;44.708;37.644;2023-05-29T11:45:14;26.92;60.05
75786;DHT22;64402;44.708;37.644;2023-05-29T11:47:58;26.91;62.21
75786;DHT22;64402;44.708;37.644;2023-05-29T11:50:26;26.47;61.38
75786;DHT22;64402;44.708;37.644;2023-05-29T11:52:53;26.79;62.24
75786;DHT22;64402;44.708;37.644;2023-05-29T11:55:20;27.27;58.77
75786;DHT22;64402;44.708;37.644;2023-05-29T11:57:48;27.64;58.61
75786;DHT22;64402;44.708;37.644;2023-05-29T12:00:15;28.95;54.75
75786;DHT22;64402;44.708;37.644;2023-05-29T12:02:43;31.75;49.21
75786;DHT22;64402;44.708;37.644;2023-05-29T12:05:09;32.07;46.80
75786;DHT22;64402;44.708;37.644;2023-05-29T12:07:38;31.48;47.54
75786;DHT22;64402;44.708;37.644;2023-05-29T12:10:12;32.08;45.76
75786;DHT22;64402;44.708;37.644;2023-05-29T12:12:39;33.67;42.27
75786;DHT22;64402;44.708;37.644;2023-05-29T12:15:08;34.24;40.20
75786;DHT22;64402;44.708;37.644;2023-05-29T12:17:36;34.31;39.77
75786;DHT22;64402;44.708;37.644;2023-05-29T12:20:03;34.23;40.23
75786;DHT22;64402;44.708;37.644;2023-05-29T12:22:34;34.44;41.06
75786;DHT22;64402;44.708;37.644;2023-05-29T12:25:11;35.47;37.19
75786;DHT22;64402;44.708;37.644;2023-05-29T12:27:42;34.94;38.15
75786;DHT22;64402;44.708;37.644;2023-05-29T12:30:09;35.09;37.87
75786;DHT22;64402;44.708;37.644;2023-05-29T12:32:41;35.07;36.99
75786;DHT22;64402;44.708;37.644;2023-05-29T12:35:12;32.91;41.19
75786;DHT22;64402;44.708;37.644;2023-05-29T12:37:43;31.93;42.45
75786;DHT22;64402;44.708;37.644;2023-05-29T12:40:30;32.60;42.55
75786;DHT22;64402;44.708;37.644;2023-05-29T12:42:59;32.87;42.33
75786;DHT22;64402;44.708;37.644;2023-05-29T12:45:27;32.93;40.98
75786;DHT22;64402;44.708;37.644;2023-05-29T12:47:59;32.99;41.66
75786;DHT22;64402;44.708;37.644;2023-05-29T12:50:28;33.32;40.08
75786;DHT22;64402;44.708;37.644;2023-05-29T12:53:03;34.33;38.47
75786;DHT22;64402;44.708;37.644;2023-05-29T12:55:31;35.55;35.01
75786;DHT22;64402;44.708;37.644;2023-05-29T12:58:12;35.89;33.86
75786;DHT22;64402;44.708;37.644;2023-05-29T13:00:40;34.27;37.76
75786;DHT22;64402;44.708;37.644;2023-05-29T13:03:07;34.63;37.32
75786;DHT22;64402;44.708;37.644;2023-05-29T13:05:34;34.25;37.87
75786;DHT22;64402;44.708;37.644;2023-05-29T13:08:01;34.47;37.45
75786;DHT22;64402;44.708;37.644;2023-05-29T13:10:27;35.51;35.45
75786;DHT22;64402;44.708;37.644;2023-05-29T13:12:55;37.02;32.46
75786;DHT22;64402;44.708;37.644;2023-05-29T13:15:25;38.04;30.38
75786;DHT22;64402;44.708;37.644;2023-05-29T13:17:53;37.54;31.41
75786;DHT22;64402;44.708;37.644;2023-05-29T13:20:19;36.95;32.47
75786;DHT22;64402;44.708;37.644;2023-05-29T13:22:47;36.42;32.25
75786;DHT22;64402;44.708;37.644;2023-05-29T13:25:15;36.25;33.33
75786;DHT22;64402;44.708;37.644;2023-05-29T13:27:44;34.57;36.94
75786;DHT22;64402;44.708;37.644;2023-05-29T13:30:12;35.23;35.21
75786;DHT22;64402;44.708;37.644;2023-05-29T13:32:39;34.83;36.39
75786;DHT22;64402;44.708;37.644;2023-05-29T13:35:05;34.50;36.98
75786;DHT22;64402;44.708;37.644;2023-05-29T13:37:31;33.96;38.30
75786;DHT22;64402;44.708;37.644;2023-05-29T13:39:58;33.05;40.24
75786;DHT22;64402;44.708;37.644;2023-05-29T13:42:24;34.26;37.74
75786;DHT22;64402;44.708;37.644;2023-05-29T13:44:51;34.63;36.99
75786;DHT22;64402;44.708;37.644;2023-05-29T13:47:17;33.72;39.08
75786;DHT22;64402;44.708;37.644;2023-05-29T13:49:44;35.12;36.40
75786;DHT22;64402;44.708;37.644;2023-05-29T13:52:10;36.09;34.40
75786;DHT22;64402;44.708;37.644;2023-05-29T13:54:38;35.14;35.63
75786;DHT22;64402;44.708;37.644;2023-05-29T13:57:05;35.64;35.27
75786;DHT22;64402;44.708;37.644;2023-05-29T13:59:35;34.79;36.00
75786;DHT22;64402;44.708;37.644;2023-05-29T14:02:02;35.15;36.42
75786;DHT22;64402;44.708;37.644;2023-05-29T14:04:30;35.62;35.39
75786;DHT22;64402;44.708;37.644;2023-05-29T14:06:56;35.81;34.53
75786;DHT22;64402;44.708;37.644;2023-05-29T14:09:23;34.76;36.24
75786;DHT22;64402;44.708;37.644;2023-05-29T14:11:58;34.39;36.78
75786;DHT22;64402;44.708;37.644;2023-05-29T14:14:25;34.36;37.09
75786;DHT22;64402;44.708;37.644;2023-05-29T14:16:53;34.73;36.66
75786;DHT22;64402;44.708;37.644;2023-05-29T14:19:22;34.76;35.37
75786;DHT22;64402;44.708;37.644;2023-05-29T14:21:49;34.84;35.16
75786;DHT22;64402;44.708;37.644;2023-05-29T14:24:16;34.94;35.15
75786;DHT22;64402;44.708;37.644;2023-05-29T14:26:44;34.45;36.58
75786;DHT22;64402;44.708;37.644;2023-05-29T14:29:13;33.59;38.23
75786;DHT22;64402;44.708;37.644;2023-05-29T14:31:40;33.23;38.41
75786;DHT22;64402;44.708;37.644;2023-05-29T14:34:07;34.05;37.90
75786;DHT22;64402;44.708;37.644;2023-05-29T14:36:33;33.90;37.64
75786;DHT22;64402;44.708;37.644;2023-05-29T14:39:02;33.86;37.30
75786;DHT22;64402;44.708;37.644;2023-05-29T14:41:28;33.17;38.38
75786;DHT22;64402;44.708;37.644;2023-05-29T14:43:55;33.07;38.63
75786;DHT22;64402;44.708;37.644;2023-05-29T14:46:25;32.88;38.98
75786;DHT22;64402;44.708;37.644;2023-05-29T14:48:52;33.66;37.26
75786;DHT22;64402;44.708;37.644;2023-05-29T14:51:20;33.91;37.31
75786;DHT22;64402;44.708;37.644;2023-05-29T14:53:46;33.95;36.75
75786;DHT22;64402;44.708;37.644;2023-05-29T14:56:13;33.89;36.65
75786;DHT22;64402;44.708;37.644;2023-05-29T14:58:39;33.81;38.11
75786;DHT22;64402;44.708;37.644;2023-05-29T15:01:07;33.71;37.49
75786;DHT22;64402;44.708;37.644;2023-05-29T15:03:33;33.93;36.63
75786;DHT22;64402;44.708;37.644;2023-05-29T15:06:05;33.11;39.29
75786;DHT22;64402;44.708;37.644;2023-05-29T15:08:32;31.57;42.70
75786;DHT22;64402;44.708;37.644;2023-05-29T15:11:03;29.87;46.28
75786;DHT22;64402;44.708;37.644;2023-05-29T15:13:30;28.62;50.34
75786;DHT22;64402;44.708;37.644;2023-05-29T15:15:57;27.80;51.96
75786;DHT22;64402;44.708;37.644;2023-05-29T15:18:26;27.19;54.26
75786;DHT22;64402;44.708;37.644;2023-05-29T15:20:53;26.83;55.35
75786;DHT22;64402;44.708;37.644;2023-05-29T15:23:21;26.91;55.87
75786;DHT22;64402;44.708;37.644;2023-05-29T15:25:49;27.88;52.65
75786;DHT22;64402;44.708;37.644;2023-05-29T15:28:16;28.57;50.39
75786;DHT22;64402;44.708;37.644;2023-05-29T15:30:43;28.75;49.92
75786;DHT22;64402;44.708;37.644;2023-05-29T15:33:10;27.99;51.91
75786;DHT22;64402;44.708;37.644;2023-05-29T15:35:37;27.53;53.20
75786;DHT22;64402;44.708;37.644;2023-05-29T15:38:04;26.96;55.20